createdAt,value
2023-04-02T03:58:51.702Z,1011.97
2023-04-02T03:59:51.855Z,1012.01
2023-04-02T04:00:52.005Z,1012.03
2023-04-02T04:01:52.208Z,1012.05
2023-04-02T04:02:52.294Z,1012.07
2023-04-02T04:03:52.466Z,1012.10
2023-04-02T04:04:52.573Z,1012.08
2023-04-02T04:05:52.740Z,1012.16
2023-04-02T04:06:52.859Z,1012.07
2023-04-02T04:07:53.028Z,1012.11
2023-04-02T04:08:53.134Z,1012.06
2023-04-02T04:09:53.315Z,1012.07
2023-04-02T04:10:53.561Z,1012.11
2023-04-02T04:11:53.654Z,1012.10
2023-04-02T04:12:53.767Z,1012.15
2023-04-02T04:13:53.922Z,1012.15
2023-04-02T04:14:54.028Z,1012.18
2023-04-02T04:15:54.163Z,1012.14
2023-04-02T04:16:54.478Z,1012.22
2023-04-02T04:17:54.417Z,1012.22
2023-04-02T04:18:54.543Z,1012.25
2023-04-02T04:19:54.657Z,1012.25
2023-04-02T04:20:54.778Z,1012.31
2023-04-02T04:21:54.922Z,1012.31
2023-04-02T04:22:55.056Z,1012.36
2023-04-02T04:23:55.166Z,1012.38
2023-04-02T04:24:55.296Z,1012.39
2023-04-02T04:25:55.466Z,1012.40
2023-04-02T04:26:55.566Z,1012.41
2023-04-02T04:27:55.701Z,1012.45
2023-04-02T04:28:55.828Z,1012.46
2023-04-02T04:29:55.964Z,1012.46
2023-04-02T04:30:56.099Z,1012.52
2023-04-02T04:31:56.277Z,1012.52
2023-04-02T04:32:56.388Z,1012.57
2023-04-02T04:33:56.499Z,1012.56
2023-04-02T04:34:56.665Z,1012.60
2023-04-02T04:35:56.803Z,1012.60
2023-04-02T04:36:56.916Z,1012.59
2023-04-02T04:37:57.032Z,1012.67
2023-04-02T04:38:57.156Z,1012.65
2023-04-02T04:39:57.290Z,1012.67
2023-04-02T04:40:57.411Z,1012.73
2023-04-02T04:41:57.541Z,1012.70
2023-04-02T04:42:57.676Z,1012.71
2023-04-02T04:43:57.873Z,1012.79
2023-04-02T04:44:57.960Z,1012.82
2023-04-02T04:45:59.156Z,1012.81
2023-04-02T04:46:58.214Z,1012.85
2023-04-02T04:47:58.421Z,1012.89
2023-04-02T04:48:58.439Z,1012.93
2023-04-02T04:49:58.595Z,1012.94
2023-04-02T04:50:58.702Z,1012.91
2023-04-02T04:51:58.872Z,1012.92
2023-04-02T04:52:58.963Z,1012.99
2023-04-02T04:53:59.025Z,1012.96
2023-04-02T04:54:59.154Z,1012.97
2023-04-02T04:56:06.040Z,1012.96
2023-04-02T04:57:00.447Z,1012.96
2023-04-02T04:57:59.567Z,1013.04
2023-04-02T04:58:59.690Z,1012.97
2023-04-02T04:59:59.820Z,1013.05
2023-04-02T05:01:00.001Z,1013.06
2023-04-02T05:02:00.138Z,1013.10
2023-04-02T05:03:00.303Z,1013.12
2023-04-02T05:04:00.339Z,1013.14
2023-04-02T05:05:00.634Z,1013.16
2023-04-02T05:06:00.644Z,1013.14
2023-04-02T05:07:00.783Z,1013.18
2023-04-02T05:08:00.940Z,1013.24
2023-04-02T05:09:01.083Z,1013.25
2023-04-02T05:10:01.267Z,1013.23
2023-04-02T05:11:01.357Z,1013.31
2023-04-02T05:12:01.504Z,1013.32
2023-04-02T05:13:01.660Z,1013.31
2023-04-02T05:14:01.765Z,1013.39
2023-04-02T05:15:01.896Z,1013.40
2023-04-02T05:16:02.048Z,1013.42
2023-04-02T05:17:02.146Z,1013.48
2023-04-02T05:18:02.446Z,1013.42
2023-04-02T05:19:02.471Z,1013.52
2023-04-02T05:20:02.593Z,1013.55
2023-04-02T05:21:02.739Z,1013.53
2023-04-02T05:22:02.821Z,1013.61
2023-04-02T05:23:02.995Z,1013.65
2023-04-02T05:24:03.114Z,1013.61
2023-04-02T05:25:03.243Z,1013.65
2023-04-02T05:26:03.354Z,1013.71
2023-04-02T05:27:03.468Z,1013.63
2023-04-02T05:28:03.704Z,1013.71
2023-04-02T05:29:03.774Z,1013.76
2023-04-02T05:30:03.898Z,1013.77
2023-04-02T05:31:04.069Z,1013.80
2023-04-02T05:32:04.236Z,1013.86
2023-04-02T05:33:04.290Z,1013.84
2023-04-02T05:34:04.339Z,1013.88
2023-04-02T05:37:21.212Z,1013.96
2023-04-02T05:38:21.286Z,1013.95
2023-04-02T05:39:21.429Z,1014.04
2023-04-02T05:40:21.550Z,1014.03
2023-04-02T05:41:21.676Z,1014.08
2023-04-02T05:42:21.811Z,1014.07
2023-04-02T05:43:21.938Z,1014.16
2023-04-02T05:44:22.089Z,1014.14
2023-04-02T05:45:23.181Z,1014.19
2023-04-02T05:46:22.374Z,1014.17
2023-04-02T05:47:22.493Z,1014.25
2023-04-02T05:48:22.626Z,1014.23
2023-04-02T05:49:22.743Z,1014.22
2023-04-02T05:50:23.801Z,1014.27
2023-04-02T05:51:23.017Z,1014.30
2023-04-02T05:52:23.162Z,1014.27
2023-04-02T05:53:23.332Z,1014.31
2023-04-02T05:54:23.437Z,1014.31
2023-04-02T05:55:23.594Z,1014.37
2023-04-02T05:56:23.667Z,1014.40
2023-04-02T05:57:39.605Z,1014.43
2023-04-02T05:59:24.098Z,1014.48
2023-04-02T06:00:24.304Z,1014.45
2023-04-02T06:01:24.341Z,1014.45
2023-04-02T06:02:24.547Z,1014.52
2023-04-02T06:03:24.687Z,1014.53
2023-04-02T06:04:24.714Z,1014.56
2023-04-02T06:05:24.846Z,1014.59
2023-04-02T06:06:24.984Z,1014.63
2023-04-02T06:07:25.117Z,1014.66
2023-04-02T06:08:25.263Z,1014.64
2023-04-02T06:09:25.413Z,1014.68
2023-04-02T06:10:25.531Z,1014.74
2023-04-02T06:11:25.659Z,1014.71
2023-04-02T06:12:25.815Z,1014.75
2023-04-02T06:13:25.929Z,1014.77
2023-04-02T06:14:26.069Z,1014.78
2023-04-02T06:15:26.202Z,1014.80
2023-04-02T06:16:26.366Z,1014.80
2023-04-02T06:17:26.491Z,1014.83
2023-04-02T06:18:26.546Z,1014.88
2023-04-02T06:19:26.710Z,1014.87
2023-04-02T06:20:26.791Z,1014.91
2023-04-02T06:21:26.934Z,1014.97
2023-04-02T06:22:27.059Z,1014.93
2023-04-02T06:23:27.172Z,1014.96
2023-04-02T06:24:27.310Z,1015.00
2023-04-02T06:25:27.432Z,1015.02
2023-04-02T06:26:27.558Z,1015.07
2023-04-02T06:27:27.684Z,1015.04
2023-04-02T06:28:27.824Z,1015.06
2023-04-02T06:29:27.948Z,1015.08
2023-04-02T06:30:28.248Z,1015.08
2023-04-02T06:31:28.252Z,1015.12
2023-04-02T06:32:28.401Z,1015.14
2023-04-02T06:33:28.466Z,1015.20
2023-04-02T06:34:28.633Z,1015.20
2023-04-02T06:35:28.725Z,1015.20
2023-04-02T06:36:28.868Z,1015.19
2023-04-02T06:37:29.029Z,1015.20
2023-04-02T06:38:29.149Z,1015.24
2023-04-02T06:39:29.273Z,1015.24
2023-04-02T06:40:29.408Z,1015.26
2023-04-02T06:41:29.581Z,1015.35
2023-04-02T06:42:29.663Z,1015.41
2023-04-02T06:43:29.761Z,1015.43
2023-04-02T06:44:29.902Z,1015.41
2023-04-02T06:45:30.063Z,1015.51
2023-04-02T06:46:30.248Z,1015.49
2023-04-02T06:47:30.322Z,1015.45
2023-04-02T06:48:30.439Z,1015.51
2023-04-02T06:49:30.563Z,1015.55
2023-04-02T06:50:30.670Z,1015.53
2023-04-02T06:51:30.818Z,1015.56
2023-04-02T06:52:31.622Z,1015.60
2023-04-02T06:53:31.062Z,1015.58
2023-04-02T06:54:32.133Z,1015.51
2023-04-02T06:55:31.527Z,1015.59
2023-04-02T06:56:31.468Z,1015.64
2023-04-02T06:57:31.790Z,1015.62
2023-04-02T06:58:31.806Z,1015.65
2023-04-02T06:59:31.899Z,1015.67
2023-04-02T07:00:32.023Z,1015.72
2023-04-02T07:01:32.213Z,1015.71
2023-04-02T07:02:32.285Z,1015.79
2023-04-02T07:03:32.444Z,1015.82
2023-04-02T07:04:32.510Z,1015.77
2023-04-02T07:05:32.897Z,1015.78
2023-04-02T07:06:32.757Z,1015.85
2023-04-02T07:07:32.894Z,1015.84
2023-04-02T07:08:33.026Z,1015.88
2023-04-02T07:09:33.196Z,1015.91
2023-04-02T07:10:33.336Z,1015.90
2023-04-02T07:11:33.441Z,1015.89
2023-04-02T07:12:33.554Z,1015.91
2023-04-02T07:13:33.676Z,1016.01
2023-04-02T07:14:33.792Z,1016.04
2023-04-02T07:15:34.115Z,1016.04
2023-04-02T07:16:34.112Z,1016.05
2023-04-02T07:17:34.255Z,1016.04
2023-04-02T07:18:34.426Z,1016.09
2023-04-02T07:19:34.514Z,1016.09
2023-04-02T07:20:34.642Z,1016.11
2023-04-02T07:21:34.796Z,1016.16
2023-04-02T07:22:34.933Z,1016.21
2023-04-02T07:23:35.033Z,1016.20
2023-04-02T07:24:35.177Z,1016.19
2023-04-02T07:25:35.513Z,1016.28
2023-04-02T07:26:35.479Z,1016.25
2023-04-02T07:27:35.567Z,1016.29
2023-04-02T07:28:35.706Z,1016.26
2023-04-02T07:29:35.864Z,1016.31
2023-04-02T07:30:36.038Z,1016.31
2023-04-02T07:31:36.272Z,1016.31
2023-04-02T07:32:36.316Z,1016.35
2023-04-02T07:33:36.469Z,1016.40
2023-04-02T07:34:36.567Z,1016.41
2023-04-02T07:35:37.053Z,1016.40
2023-04-02T07:36:36.828Z,1016.40
2023-04-02T07:37:36.978Z,1016.44
2023-04-02T07:38:37.166Z,1016.48
2023-04-02T07:39:40.179Z,1016.51
2023-04-02T07:40:37.393Z,1016.49
2023-04-02T07:41:37.698Z,1016.55
2023-04-02T07:43:53.287Z,1016.63
2023-04-02T07:45:14.398Z,1016.60
2023-04-02T07:45:53.523Z,1016.67
2023-04-02T07:46:53.678Z,1016.68
2023-04-02T07:47:53.890Z,1016.68
2023-04-02T07:48:53.985Z,1016.72
2023-04-02T07:49:54.125Z,1016.73
2023-04-02T07:50:54.259Z,1016.71
2023-04-02T07:51:54.388Z,1016.75
2023-04-02T07:52:54.524Z,1016.78
2023-04-02T07:53:54.667Z,1016.86
2023-04-02T07:54:54.804Z,1016.88
2023-04-02T07:55:54.953Z,1016.94
2023-04-02T07:56:55.143Z,1016.90
2023-04-02T07:57:56.229Z,1016.92
2023-04-02T07:58:55.425Z,1016.91
2023-04-02T07:59:55.501Z,1016.97
2023-04-02T08:00:55.636Z,1016.95
2023-04-02T08:01:55.798Z,1016.94
2023-04-02T08:02:55.923Z,1017.00
2023-04-02T08:03:56.121Z,1017.02
2023-04-02T08:04:56.124Z,1017.06
2023-04-02T08:05:56.302Z,1017.05
2023-04-02T08:06:56.405Z,1017.07
2023-04-02T08:07:56.517Z,1017.13
2023-04-02T08:08:57.588Z,1017.12
2023-04-02T08:09:56.814Z,1017.10
2023-04-02T08:10:56.991Z,1017.14
2023-04-02T08:11:57.125Z,1017.13
2023-04-02T08:12:57.233Z,1017.19
2023-04-02T08:13:57.407Z,1017.22
2023-04-02T08:14:57.575Z,1017.23
2023-04-02T08:15:57.672Z,1017.26
2023-04-02T08:16:57.823Z,1017.29
2023-04-02T08:17:57.946Z,1017.26
2023-04-02T08:18:57.995Z,1017.32
2023-04-02T08:19:58.120Z,1017.33
2023-04-02T08:20:58.227Z,1017.32
2023-04-02T08:21:58.360Z,1017.38
2023-04-02T08:22:58.506Z,1017.36
2023-04-02T08:23:58.645Z,1017.39
2023-04-02T08:24:58.777Z,1017.42
2023-04-02T08:25:58.887Z,1017.39
2023-04-02T08:26:59.023Z,1017.35
2023-04-02T08:27:59.191Z,1017.48
2023-04-02T08:28:59.374Z,1017.39
2023-04-02T08:29:59.432Z,1017.46
2023-04-02T08:30:59.609Z,1017.44
2023-04-02T08:31:59.752Z,1017.46
2023-04-02T08:32:59.933Z,1017.45
2023-04-02T08:34:00.039Z,1017.49
2023-04-02T08:35:00.227Z,1017.48
2023-04-02T08:36:00.385Z,1017.55
2023-04-02T08:37:00.500Z,1017.57
2023-04-02T08:38:00.657Z,1017.51
2023-04-02T08:39:00.806Z,1017.58
2023-04-02T08:40:01.949Z,1017.60
2023-04-02T08:41:01.082Z,1017.54
2023-04-02T08:42:01.260Z,1017.58
2023-04-02T08:43:01.356Z,1017.65
2023-04-02T08:44:01.455Z,1017.64
2023-04-02T08:45:08.114Z,1017.58
2023-04-02T08:46:02.734Z,1017.64
2023-04-02T08:47:01.842Z,1017.68
2023-04-02T08:48:02.076Z,1017.66
2023-04-02T08:49:02.078Z,1017.63
2023-04-02T08:50:02.232Z,1017.67
2023-04-02T08:51:02.371Z,1017.68
2023-04-02T08:52:02.515Z,1017.72
2023-04-02T08:53:02.643Z,1017.68
2023-04-02T08:54:02.765Z,1017.73
2023-04-02T08:55:02.906Z,1017.81
2023-04-02T08:56:02.996Z,1017.78
2023-04-02T08:57:03.236Z,1017.78
2023-04-02T08:58:03.222Z,1017.76
2023-04-02T08:59:03.362Z,1017.87
2023-04-02T09:00:03.492Z,1017.91
2023-04-02T09:01:04.610Z,1017.95
2023-04-02T09:02:03.832Z,1017.95
2023-04-02T09:03:03.937Z,1017.90
2023-04-02T09:04:03.996Z,1017.93
2023-04-02T09:05:04.228Z,1017.89
2023-04-02T09:06:04.272Z,1018.02
2023-04-02T09:07:04.374Z,1018.05
2023-04-02T09:08:04.520Z,1018.01
2023-04-02T09:09:04.672Z,1017.99
2023-04-02T09:10:04.803Z,1018.05
2023-04-02T09:11:04.884Z,1018.01
2023-04-02T09:12:05.718Z,1018.02
2023-04-02T09:13:05.155Z,1018.02
2023-04-02T09:14:05.272Z,1018.05
2023-04-02T09:15:05.436Z,1018.06
2023-04-02T09:16:05.607Z,1018.04
2023-04-02T09:17:05.679Z,1018.08
2023-04-02T09:18:05.840Z,1018.09
2023-04-02T09:19:05.898Z,1018.17
2023-04-02T09:20:06.014Z,1018.10
2023-04-02T09:21:06.141Z,1018.17
2023-04-02T09:22:06.549Z,1018.15
2023-04-02T09:24:21.939Z,1018.19
2023-04-02T09:25:22.080Z,1018.21
2023-04-02T09:26:22.197Z,1018.29
2023-04-02T09:27:22.336Z,1018.23
2023-04-02T09:28:22.438Z,1018.25
2023-04-02T09:29:22.512Z,1018.29
2023-04-02T09:30:22.769Z,1018.36
2023-04-02T09:31:22.894Z,1018.33
2023-04-02T09:32:22.978Z,1018.36
2023-04-02T09:33:23.129Z,1018.43
2023-04-02T09:34:23.265Z,1018.44
2023-04-02T09:35:26.641Z,1018.40
2023-04-02T09:36:23.608Z,1018.41
2023-04-02T09:37:23.741Z,1018.39
2023-04-02T09:38:23.874Z,1018.45
2023-04-02T09:39:24.019Z,1018.48
2023-04-02T09:40:24.184Z,1018.43
2023-04-02T09:41:24.301Z,1018.45
2023-04-02T09:42:24.544Z,1018.43
2023-04-02T09:43:24.569Z,1018.46
2023-04-02T09:44:24.782Z,1018.51
2023-04-02T09:45:24.885Z,1018.49
2023-04-02T09:46:25.063Z,1018.57
2023-04-02T09:47:25.204Z,1018.50
2023-04-02T09:48:25.283Z,1018.51
2023-04-02T09:49:25.421Z,1018.59
2023-04-02T09:50:25.543Z,1018.58
2023-04-02T09:51:25.679Z,1018.61
2023-04-02T09:52:25.809Z,1018.61
2023-04-02T09:53:25.949Z,1018.59
2023-04-02T09:54:26.081Z,1018.57
2023-04-02T09:55:26.250Z,1018.59
2023-04-02T09:56:26.309Z,1018.61
2023-04-02T09:57:26.451Z,1018.68
2023-04-02T09:58:26.592Z,1018.69
2023-04-02T09:59:26.732Z,1018.68
2023-04-02T10:00:32.148Z,1018.71
2023-04-02T10:01:28.124Z,1018.71
2023-04-02T10:02:27.262Z,1018.72
2023-04-02T10:13:13.446Z,1018.98
2023-04-02T10:14:13.515Z,1019.01
2023-04-02T10:15:13.677Z,1018.93
2023-04-02T10:16:13.889Z,1019.01
2023-04-02T10:17:13.977Z,1019.02
2023-04-02T10:18:14.048Z,1018.94
2023-04-02T10:19:14.175Z,1018.96
2023-04-02T10:20:14.288Z,1018.99
2023-04-02T10:21:15.382Z,1018.95
2023-04-02T10:22:14.528Z,1018.98
2023-04-02T10:23:14.695Z,1019.04
2023-04-02T10:24:14.755Z,1019.00
2023-04-02T10:25:14.945Z,1018.96
2023-04-02T10:26:14.994Z,1019.10
2023-04-02T10:27:15.108Z,1019.05
2023-04-02T10:28:15.235Z,1019.09
2023-04-02T10:29:15.356Z,1019.13
2023-04-02T10:30:15.565Z,1019.14
2023-04-02T10:31:15.674Z,1019.08
2023-04-02T10:32:15.811Z,1019.14
2023-04-02T10:33:16.848Z,1019.11
2023-04-02T10:34:16.009Z,1019.18
2023-04-02T10:35:16.164Z,1019.15
2023-04-02T10:36:16.386Z,1019.22
2023-04-02T10:37:16.430Z,1019.22
2023-04-02T10:38:17.288Z,1019.27
2023-04-02T10:39:16.672Z,1019.30
2023-04-02T10:40:16.806Z,1019.29
2023-04-02T10:41:16.921Z,1019.36
2023-04-02T10:42:17.050Z,1019.41
2023-04-02T10:43:17.195Z,1019.41
2023-04-02T10:44:20.587Z,1019.36
2023-04-02T10:45:17.498Z,1019.40
2023-04-02T10:46:17.634Z,1019.41
2023-04-02T10:47:17.739Z,1019.38
2023-04-02T10:48:17.882Z,1019.42
2023-04-02T10:49:18.020Z,1019.49
2023-04-02T10:50:18.138Z,1019.51
2023-04-02T10:51:18.254Z,1019.54
2023-04-02T10:52:18.402Z,1019.52
2023-04-02T10:53:18.562Z,1019.55
2023-04-02T10:54:18.690Z,1019.58
2023-04-02T10:55:18.825Z,1019.57
2023-04-02T10:56:18.936Z,1019.65
2023-04-02T10:57:19.127Z,1019.66
2023-04-02T10:58:19.237Z,1019.64
2023-04-02T10:59:19.425Z,1019.69
2023-04-02T11:00:20.417Z,1019.73
2023-04-02T11:01:19.647Z,1019.72
2023-04-02T11:02:19.849Z,1019.73
2023-04-02T11:03:19.967Z,1019.73
2023-04-02T11:04:20.067Z,1019.74
2023-04-02T11:05:20.176Z,1019.74
2023-04-02T11:06:20.331Z,1019.71
2023-04-02T11:07:20.457Z,1019.72
2023-04-02T11:08:20.649Z,1019.73
2023-04-02T11:09:20.714Z,1019.81
2023-04-02T11:10:20.830Z,1019.79
2023-04-02T11:11:20.975Z,1019.80
2023-04-02T11:12:21.135Z,1019.83
2023-04-02T11:13:21.261Z,1019.80
2023-04-02T11:14:21.388Z,1019.88
2023-04-02T11:15:21.692Z,1019.86
2023-04-02T11:16:21.671Z,1019.83
2023-04-02T11:17:21.798Z,1019.84
2023-04-02T11:18:21.916Z,1019.82
2023-04-02T11:19:22.056Z,1019.89
2023-04-02T11:20:22.180Z,1019.87
2023-04-02T11:21:22.342Z,1019.86
2023-04-02T11:22:22.464Z,1019.87
2023-04-02T11:23:22.745Z,1019.89
2023-04-02T11:24:22.748Z,1019.93
2023-04-02T11:25:22.865Z,1019.92
2023-04-02T11:26:23.003Z,1019.95
2023-04-02T11:27:23.157Z,1019.92
2023-04-02T11:28:25.119Z,1019.98
2023-04-02T11:29:23.385Z,1019.96
2023-04-02T11:30:23.502Z,1019.96
2023-04-02T11:31:23.665Z,1020.02
2023-04-02T11:32:23.852Z,1020.01
2023-04-02T11:33:35.880Z,1019.93
2023-04-02T11:34:25.045Z,1019.93
2023-04-02T11:35:24.166Z,1019.99
2023-04-02T11:36:24.311Z,1019.95
2023-04-02T11:37:24.477Z,1019.93
2023-04-02T11:38:24.609Z,1019.94
2023-04-02T11:39:24.765Z,1019.94
2023-04-02T11:40:25.838Z,1019.90
2023-04-02T11:41:25.072Z,1019.91
2023-04-02T11:42:25.197Z,1019.91
2023-04-02T11:43:25.266Z,1019.93
2023-04-02T11:44:25.416Z,1019.85
2023-04-02T11:45:25.551Z,1019.94
2023-04-02T11:46:25.753Z,1019.88
2023-04-02T11:47:25.896Z,1019.92
2023-04-02T11:48:26.102Z,1019.85
2023-04-02T11:50:41.696Z,1019.90
2023-04-02T11:51:41.771Z,1019.95
2023-04-02T11:52:41.904Z,1019.91
2023-04-02T11:53:42.056Z,1019.84
2023-04-02T11:54:42.208Z,1019.80
2023-04-02T11:55:42.327Z,1019.90
2023-04-02T11:56:42.443Z,1019.91
2023-04-02T11:57:42.661Z,1019.90
2023-04-02T11:58:42.690Z,1019.89
2023-04-02T11:59:42.845Z,1019.97
2023-04-02T12:00:42.919Z,1020.02
2023-04-02T12:01:43.169Z,1020.01
2023-04-02T12:02:43.352Z,1020.09
2023-04-02T12:03:43.514Z,1020.05
2023-04-02T12:04:43.509Z,1020.06
2023-04-02T12:05:43.774Z,1020.14
2023-04-02T12:06:43.786Z,1020.17
2023-04-02T12:07:43.887Z,1020.18
2023-04-02T12:08:56.719Z,1020.28
2023-04-02T12:09:45.158Z,1020.17
2023-04-02T12:10:44.300Z,1020.20
2023-04-02T12:11:44.435Z,1020.21
2023-04-02T12:12:44.559Z,1020.21
2023-04-02T12:13:44.679Z,1020.25
2023-04-02T12:14:44.792Z,1020.36
2023-04-02T12:15:44.916Z,1020.24
2023-04-02T12:16:45.058Z,1020.27
2023-04-02T12:17:45.184Z,1020.31
2023-04-02T12:18:45.294Z,1020.28
2023-04-02T12:19:45.424Z,1020.19
2023-04-02T12:20:45.559Z,1020.24
2023-04-02T12:21:45.762Z,1020.27
2023-04-02T12:22:45.867Z,1020.31
2023-04-02T12:23:45.984Z,1020.36
2023-04-02T12:24:46.128Z,1020.36
2023-04-02T12:25:46.216Z,1020.34
2023-04-02T12:26:46.438Z,1020.30
2023-04-02T12:27:46.509Z,1020.41
2023-04-02T12:28:46.626Z,1020.34
2023-04-02T12:29:46.801Z,1020.42
2023-04-02T12:30:46.929Z,1020.40
2023-04-02T12:31:47.047Z,1020.45
2023-04-02T12:32:47.216Z,1020.34
2023-04-02T12:33:47.286Z,1020.35
2023-04-02T12:34:47.401Z,1020.42
2023-04-02T12:35:47.603Z,1020.38
2023-04-02T12:36:47.693Z,1020.39
2023-04-02T12:37:47.855Z,1020.38
2023-04-02T12:38:47.957Z,1020.41
2023-04-02T12:39:48.088Z,1020.39
2023-04-02T12:40:48.252Z,1020.43
2023-04-02T12:41:48.400Z,1020.48
2023-04-02T12:42:48.503Z,1020.41
2023-04-02T12:43:48.653Z,1020.45
2023-04-02T12:44:48.799Z,1020.45
2023-04-02T12:45:48.961Z,1020.42
2023-04-02T12:46:49.025Z,1020.42
2023-04-02T12:47:49.273Z,1020.42
2023-04-02T12:48:49.326Z,1020.41
2023-04-02T12:49:49.428Z,1020.44
2023-04-02T12:50:49.578Z,1020.38
2023-04-02T12:51:49.742Z,1020.43
2023-04-02T12:52:49.870Z,1020.44
2023-04-02T12:53:50.004Z,1020.44
2023-04-02T12:54:50.092Z,1020.39
2023-04-02T12:55:50.227Z,1020.50
2023-04-02T12:56:50.371Z,1020.43
2023-04-02T12:57:50.509Z,1020.50
2023-04-02T12:58:50.627Z,1020.53
2023-04-02T12:59:50.734Z,1020.50
2023-04-02T13:00:50.852Z,1020.50
2023-04-02T13:01:51.046Z,1020.51
2023-04-02T13:02:51.144Z,1020.44
2023-04-02T13:03:51.307Z,1020.45
2023-04-02T13:04:51.307Z,1020.42
2023-04-02T13:05:51.547Z,1020.36
2023-04-02T13:06:51.603Z,1020.37
2023-04-02T13:07:51.778Z,1020.39
2023-04-02T13:08:51.921Z,1020.39
2023-04-02T13:09:52.070Z,1020.38
2023-04-02T13:10:52.168Z,1020.40
2023-04-02T13:11:52.259Z,1020.40
2023-04-02T13:12:52.440Z,1020.40
2023-04-02T13:13:52.653Z,1020.41
2023-04-02T13:14:52.764Z,1020.42
2023-04-02T13:15:52.877Z,1020.44
2023-04-02T13:16:53.017Z,1020.48
2023-04-02T13:17:53.160Z,1020.48
2023-04-02T13:18:54.187Z,1020.37
2023-04-02T13:19:53.463Z,1020.45
2023-04-02T13:20:53.627Z,1020.36
2023-04-02T13:21:53.730Z,1020.39
2023-04-02T13:22:53.836Z,1020.41
2023-04-02T13:23:54.004Z,1020.43
2023-04-02T13:24:54.153Z,1020.41
2023-04-02T13:25:54.279Z,1020.45
2023-04-02T13:26:54.392Z,1020.33
2023-04-02T13:27:54.541Z,1020.34
2023-04-02T13:28:54.621Z,1020.34
2023-04-02T13:29:54.719Z,1020.36
2023-04-02T13:30:54.835Z,1020.38
2023-04-02T13:31:55.064Z,1020.38
2023-04-02T13:32:55.118Z,1020.40
2023-04-02T13:33:55.296Z,1020.43
2023-04-02T13:34:55.506Z,1020.41
2023-04-02T13:35:55.610Z,1020.39
2023-04-02T13:36:55.742Z,1020.44
2023-04-02T13:37:55.935Z,1020.39
2023-04-02T13:38:56.005Z,1020.39
2023-04-02T13:39:56.123Z,1020.35
2023-04-02T13:40:56.251Z,1020.36
2023-04-02T13:41:56.379Z,1020.36
2023-04-02T13:42:56.520Z,1020.32
2023-04-02T13:43:56.650Z,1020.35
2023-04-02T13:44:56.770Z,1020.36
2023-04-02T13:45:57.019Z,1020.45
2023-04-02T13:46:57.108Z,1020.41
2023-04-02T13:47:57.268Z,1020.38
2023-04-02T13:48:57.367Z,1020.41
2023-04-02T13:49:57.485Z,1020.38
2023-04-02T13:50:57.627Z,1020.42
2023-04-02T13:51:57.707Z,1020.38
2023-04-02T13:52:57.851Z,1020.39
2023-04-02T13:53:58.000Z,1020.39
2023-04-02T13:54:58.100Z,1020.36
2023-04-02T13:55:58.214Z,1020.46
2023-04-02T13:56:58.332Z,1020.40
2023-04-02T13:57:58.430Z,1020.39
2023-04-02T13:58:58.578Z,1020.41
2023-04-02T13:59:58.722Z,1020.39
2023-04-02T14:00:58.949Z,1020.36
2023-04-02T14:01:59.053Z,1020.37
2023-04-02T14:02:59.165Z,1020.35
2023-04-02T14:03:59.289Z,1020.41
2023-04-02T14:05:00.497Z,1020.42
2023-04-02T14:05:59.548Z,1020.40
2023-04-02T14:06:59.720Z,1020.41
2023-04-02T14:07:59.831Z,1020.40
2023-04-02T14:08:59.958Z,1020.37
2023-04-02T14:10:00.144Z,1020.34
2023-04-02T14:11:00.209Z,1020.38
2023-04-02T14:12:00.422Z,1020.44
2023-04-02T14:13:00.528Z,1020.45
2023-04-02T14:14:00.688Z,1020.43
2023-04-02T14:15:00.817Z,1020.44
2023-04-02T14:16:00.964Z,1020.48
2023-04-02T14:17:01.125Z,1020.55
2023-04-02T14:18:01.205Z,1020.49
2023-04-02T14:19:01.353Z,1020.44
2023-04-02T14:20:01.480Z,1020.46
2023-04-02T14:21:01.592Z,1020.54
2023-04-02T14:22:01.686Z,1020.55
2023-04-02T14:23:01.865Z,1020.57
2023-04-02T14:24:02.017Z,1020.60
2023-04-02T14:25:02.163Z,1020.55
2023-04-02T14:26:02.312Z,1020.58
2023-04-02T14:27:03.048Z,1020.59
2023-04-02T14:28:02.567Z,1020.55
2023-04-02T14:29:02.679Z,1020.59
2023-04-02T14:30:02.824Z,1020.65
2023-04-02T14:31:02.956Z,1020.63
2023-04-02T14:32:03.139Z,1020.63
2023-04-02T14:33:03.280Z,1020.62
2023-04-02T14:34:03.338Z,1020.64
2023-04-02T14:35:03.510Z,1020.64
2023-04-02T14:36:03.677Z,1020.65
2023-04-02T14:37:03.765Z,1020.67
2023-04-02T14:38:03.879Z,1020.62
2023-04-02T14:39:04.109Z,1020.62
2023-04-02T14:40:04.226Z,1020.67
2023-04-02T14:41:04.304Z,1020.67
2023-04-02T14:42:04.406Z,1020.67
2023-04-02T14:43:04.525Z,1020.61
2023-04-02T14:44:04.668Z,1020.67
2023-04-02T14:45:04.807Z,1020.67
2023-04-02T14:46:04.967Z,1020.74
2023-04-02T14:47:05.028Z,1020.67
2023-04-02T14:48:05.165Z,1020.70
2023-04-02T14:49:05.288Z,1020.70
2023-04-02T14:50:05.425Z,1020.71
2023-04-02T14:51:06.553Z,1020.68
2023-04-02T14:52:05.727Z,1020.69
2023-04-02T14:53:05.848Z,1020.69
2023-04-02T14:54:06.010Z,1020.68
2023-04-02T14:55:06.130Z,1020.67
2023-04-02T14:56:06.286Z,1020.73
2023-04-02T14:57:06.458Z,1020.72
2023-04-02T14:58:06.564Z,1020.77
2023-04-02T14:59:06.682Z,1020.74
2023-04-02T15:00:06.803Z,1020.77
2023-04-02T15:01:06.908Z,1020.75
2023-04-02T15:02:07.085Z,1020.69
2023-04-02T15:03:07.320Z,1020.73
2023-04-02T15:04:07.389Z,1020.72
2023-04-02T15:05:07.547Z,1020.73
2023-04-02T15:06:07.648Z,1020.76
2023-04-02T15:07:07.778Z,1020.70
2023-04-02T15:08:07.933Z,1020.74
2023-04-02T15:09:09.719Z,1020.65
2023-04-02T15:10:08.308Z,1020.67
2023-04-02T15:11:08.777Z,1020.68
2023-04-02T15:12:08.521Z,1020.73
2023-04-02T15:13:08.674Z,1020.70
2023-04-02T15:14:08.820Z,1020.77
2023-04-02T15:15:08.929Z,1020.77
2023-04-02T15:16:11.360Z,1020.83
2023-04-02T15:17:09.235Z,1020.86
2023-04-02T15:18:09.412Z,1020.86
2023-04-02T15:19:09.549Z,1020.89
2023-04-02T15:20:09.692Z,1020.84
2023-04-02T15:21:09.805Z,1020.88
2023-04-02T15:22:10.030Z,1020.89
2023-04-02T15:23:10.070Z,1020.90
2023-04-02T15:24:10.151Z,1020.94
2023-04-02T15:25:10.264Z,1020.92
2023-04-02T15:26:10.407Z,1020.90
2023-04-02T15:27:21.804Z,1020.90
2023-04-02T15:28:11.674Z,1020.90
2023-04-02T15:29:22.251Z,1020.97
2023-04-02T15:30:11.966Z,1020.85
2023-04-02T15:31:11.177Z,1020.90
2023-04-02T15:32:11.291Z,1020.96
2023-04-02T15:33:11.464Z,1020.98
2023-04-02T15:34:11.570Z,1020.97
2023-04-02T15:35:11.678Z,1021.03
2023-04-02T15:36:11.845Z,1020.98
2023-04-02T15:37:11.942Z,1021.02
2023-04-02T15:38:12.068Z,1020.98
2023-04-02T15:39:12.173Z,1020.94
2023-04-02T15:40:12.333Z,1020.98
2023-04-02T15:41:12.442Z,1021.04
2023-04-02T15:42:12.587Z,1021.05
2023-04-02T15:43:12.718Z,1021.08
2023-04-02T15:44:12.911Z,1021.06
2023-04-02T15:45:13.014Z,1021.06
2023-04-02T15:46:13.151Z,1021.11
2023-04-02T15:47:13.254Z,1021.10
2023-04-02T15:48:13.405Z,1021.13
2023-04-02T15:49:13.562Z,1021.14
2023-04-02T15:50:13.658Z,1021.17
2023-04-02T15:51:13.864Z,1021.14
2023-04-02T15:52:14.009Z,1021.16
2023-04-02T15:53:14.181Z,1021.15
2023-04-02T15:54:14.238Z,1021.20
2023-04-02T15:55:14.418Z,1021.17
2023-04-02T15:56:14.556Z,1021.17
2023-04-02T15:57:14.769Z,1021.15
2023-04-02T15:58:14.840Z,1021.16
2023-04-02T15:59:14.980Z,1021.12
2023-04-02T16:00:15.160Z,1021.20
2023-04-02T16:12:20.834Z,1021.45
2023-04-02T16:13:20.923Z,1021.41
2023-04-02T16:14:21.087Z,1021.41
2023-04-02T16:15:21.207Z,1021.42
2023-04-02T16:16:21.373Z,1021.44
2023-04-02T16:17:24.933Z,1021.40
2023-04-02T16:18:21.610Z,1021.49
2023-04-02T16:19:22.693Z,1021.50
2023-04-02T16:20:22.605Z,1021.51
2023-04-02T16:21:22.249Z,1021.54
2023-04-02T16:22:22.165Z,1021.51
2023-04-02T16:23:22.280Z,1021.53
2023-04-02T16:24:22.409Z,1021.56
2023-04-02T16:25:22.566Z,1021.56
2023-04-02T16:26:22.706Z,1021.54
2023-04-02T16:27:22.842Z,1021.61
2023-04-02T16:28:22.965Z,1021.61
2023-04-02T16:29:23.093Z,1021.58
2023-04-02T16:30:23.217Z,1021.60
2023-04-02T16:31:23.446Z,1021.57
2023-04-02T16:32:23.519Z,1021.64
2023-04-02T16:33:23.599Z,1021.62